sensor_id;sensor_type;location;lat;lon;timestamp;pressure;altitude;pressure_sealevel;temperature;humidity
39051;BME280;24805;55.852;37.644;2023-03-11T00:01:01;98879.88;;;-2.81;49.24
39051;BME280;24805;55.852;37.644;2023-03-11T00:06:03;98876.56;;;-2.83;49.38
39051;BME280;24805;55.852;37.644;2023-03-11T00:11:05;98872.31;;;-2.84;49.39
39051;BME280;24805;55.852;37.644;2023-03-11T00:16:08;98862.25;;;-2.89;49.56
39051;BME280;24805;55.852;37.644;2023-03-11T00:21:14;98880.41;;;-2.89;49.64
39051;BME280;24805;55.852;37.644;2023-03-11T00:26:18;98867.03;;;-2.95;49.58
39051;BME280;24805;55.852;37.644;2023-03-11T00:31:20;98868.56;;;-2.93;49.54
39051;BME280;24805;55.852;37.644;2023-03-11T00:36:28;98870.44;;;-2.95;50.19
39051;BME280;24805;55.852;37.644;2023-03-11T00:41:33;98844.25;;;-3.16;49.88
39051;BME280;24805;55.852;37.644;2023-03-11T00:46:35;98862.50;;;-3.04;49.85
39051;BME280;24805;55.852;37.644;2023-03-11T00:51:37;98865.94;;;-3.04;50.59
39051;BME280;24805;55.852;37.644;2023-03-11T00:56:39;98869.97;;;-3.13;49.97
39051;BME280;24805;55.852;37.644;2023-03-11T01:01:43;98870.72;;;-3.10;49.54
39051;BME280;24805;55.852;37.644;2023-03-11T01:06:45;98864.53;;;-3.21;50.33
39051;BME280;24805;55.852;37.644;2023-03-11T01:11:47;98873.44;;;-3.25;50.08
39051;BME280;24805;55.852;37.644;2023-03-11T01:16:49;98873.94;;;-3.20;49.40
39051;BME280;24805;55.852;37.644;2023-03-11T01:21:51;98874.47;;;-3.27;50.32
39051;BME280;24805;55.852;37.644;2023-03-11T01:26:54;98869.91;;;-3.36;50.41
39051;BME280;24805;55.852;37.644;2023-03-11T01:31:57;98871.19;;;-3.42;50.52
39051;BME280;24805;55.852;37.644;2023-03-11T01:37:01;98867.78;;;-3.42;50.79
39051;BME280;24805;55.852;37.644;2023-03-11T01:42:04;98865.59;;;-3.49;50.61
39051;BME280;24805;55.852;37.644;2023-03-11T01:52:12;98866.94;;;-3.56;51.20
39051;BME280;24805;55.852;37.644;2023-03-11T01:57:23;98854.06;;;-3.57;51.10
39051;BME280;24805;55.852;37.644;2023-03-11T02:02:33;98853.56;;;-3.50;50.94
39051;BME280;24805;55.852;37.644;2023-03-11T02:07:39;98857.69;;;-3.47;50.78
39051;BME280;24805;55.852;37.644;2023-03-11T02:12:44;98854.59;;;-3.52;51.61
39051;BME280;24805;55.852;37.644;2023-03-11T02:17:55;98858.75;;;-3.50;51.25
39051;BME280;24805;55.852;37.644;2023-03-11T02:23:00;98851.47;;;-3.44;51.07
39051;BME280;24805;55.852;37.644;2023-03-11T02:28:07;98860.09;;;-3.44;51.04
39051;BME280;24805;55.852;37.644;2023-03-11T02:33:12;98848.88;;;-3.44;51.11
39051;BME280;24805;55.852;37.644;2023-03-11T02:38:15;98856.66;;;-3.44;50.94
39051;BME280;24805;55.852;37.644;2023-03-11T02:48:35;98854.69;;;-3.54;51.53
39051;BME280;24805;55.852;37.644;2023-03-11T02:53:46;98848.38;;;-3.50;51.26
39051;BME280;24805;55.852;37.644;2023-03-11T02:58:49;98846.97;;;-3.30;49.48
39051;BME280;24805;55.852;37.644;2023-03-11T03:03:51;98844.00;;;-3.49;51.55
39051;BME280;24805;55.852;37.644;2023-03-11T03:08:54;98854.06;;;-3.57;52.54
39051;BME280;24805;55.852;37.644;2023-03-11T03:13:56;98860.19;;;-3.58;52.20
39051;BME280;24805;55.852;37.644;2023-03-11T03:18:58;98863.09;;;-3.50;51.90
39051;BME280;24805;55.852;37.644;2023-03-11T03:24:01;98853.13;;;-3.56;52.42
39051;BME280;24805;55.852;37.644;2023-03-11T03:29:04;98863.22;;;-3.64;52.45
39051;BME280;24805;55.852;37.644;2023-03-11T03:34:07;98859.91;;;-3.66;52.41
39051;BME280;24805;55.852;37.644;2023-03-11T03:39:10;98842.56;;;-3.66;52.56
39051;BME280;24805;55.852;37.644;2023-03-11T03:44:12;98854.50;;;-3.63;53.06
39051;BME280;24805;55.852;37.644;2023-03-11T03:49:14;98856.91;;;-3.60;53.06
39051;BME280;24805;55.852;37.644;2023-03-11T03:54:18;98846.00;;;-3.65;53.21
39051;BME280;24805;55.852;37.644;2023-03-11T03:59:20;98841.03;;;-3.68;53.95
39051;BME280;24805;55.852;37.644;2023-03-11T04:04:27;98840.28;;;-3.70;54.84
39051;BME280;24805;55.852;37.644;2023-03-11T04:09:31;98846.09;;;-3.79;55.77
39051;BME280;24805;55.852;37.644;2023-03-11T04:14:34;98849.22;;;-3.74;55.25
39051;BME280;24805;55.852;37.644;2023-03-11T04:19:36;98841.97;;;-3.82;56.03
39051;BME280;24805;55.852;37.644;2023-03-11T04:24:39;98839.78;;;-3.75;55.56
39051;BME280;24805;55.852;37.644;2023-03-11T04:29:41;98823.50;;;-3.90;57.08
39051;BME280;24805;55.852;37.644;2023-03-11T04:34:43;98809.00;;;-3.93;57.88
39051;BME280;24805;55.852;37.644;2023-03-11T04:39:49;98811.19;;;-3.87;57.74
39051;BME280;24805;55.852;37.644;2023-03-11T04:44:51;98807.22;;;-3.92;58.28
39051;BME280;24805;55.852;37.644;2023-03-11T04:49:54;98804.84;;;-3.83;58.18
39051;BME280;24805;55.852;37.644;2023-03-11T04:54:57;98797.47;;;-3.76;57.65
39051;BME280;24805;55.852;37.644;2023-03-11T05:00:00;98802.13;;;-3.68;57.54
39051;BME280;24805;55.852;37.644;2023-03-11T05:05:05;98809.59;;;-3.64;57.98
39051;BME280;24805;55.852;37.644;2023-03-11T05:10:09;98806.59;;;-3.70;58.07
39051;BME280;24805;55.852;37.644;2023-03-11T05:15:13;98793.19;;;-3.52;57.81
39051;BME280;24805;55.852;37.644;2023-03-11T05:20:15;98803.25;;;-3.47;57.48
39051;BME280;24805;55.852;37.644;2023-03-11T05:25:17;98791.22;;;-3.48;57.78
39051;BME280;24805;55.852;37.644;2023-03-11T05:30:20;98795.16;;;-3.42;57.76
39051;BME280;24805;55.852;37.644;2023-03-11T05:35:22;98772.63;;;-3.42;57.61
39051;BME280;24805;55.852;37.644;2023-03-11T05:40:25;98789.84;;;-3.41;57.52
39051;BME280;24805;55.852;37.644;2023-03-11T05:45:27;98792.31;;;-3.27;57.04
39051;BME280;24805;55.852;37.644;2023-03-11T05:50:33;98783.97;;;-3.19;56.48
39051;BME280;24805;55.852;37.644;2023-03-11T05:55:36;98793.50;;;-3.20;57.34
39051;BME280;24805;55.852;37.644;2023-03-11T06:00:38;98790.47;;;-3.14;57.51
39051;BME280;24805;55.852;37.644;2023-03-11T06:05:48;98783.53;;;-2.89;57.49
39051;BME280;24805;55.852;37.644;2023-03-11T06:10:52;98782.06;;;-2.81;57.59
39051;BME280;24805;55.852;37.644;2023-03-11T06:16:02;98774.53;;;-2.72;57.88
39051;BME280;24805;55.852;37.644;2023-03-11T06:21:05;98775.13;;;-2.69;57.33
39051;BME280;24805;55.852;37.644;2023-03-11T06:26:11;98777.69;;;-2.80;57.43
39051;BME280;24805;55.852;37.644;2023-03-11T06:31:19;98775.13;;;-2.93;57.53
39051;BME280;24805;55.852;37.644;2023-03-11T06:36:22;98772.66;;;-2.94;57.85
39051;BME280;24805;55.852;37.644;2023-03-11T06:41:24;98764.44;;;-2.88;57.94
39051;BME280;24805;55.852;37.644;2023-03-11T06:46:27;98766.59;;;-3.06;58.58
39051;BME280;24805;55.852;37.644;2023-03-11T06:51:30;98754.44;;;-3.05;58.25
39051;BME280;24805;55.852;37.644;2023-03-11T06:56:33;98760.56;;;-3.06;59.24
39051;BME280;24805;55.852;37.644;2023-03-11T07:01:39;98760.47;;;-3.05;58.69
39051;BME280;24805;55.852;37.644;2023-03-11T07:06:43;98745.41;;;-3.00;58.77
39051;BME280;24805;55.852;37.644;2023-03-11T07:11:51;98754.69;;;-2.97;59.66
39051;BME280;24805;55.852;37.644;2023-03-11T07:17:00;98699.41;;;-3.22;59.06
39051;BME280;24805;55.852;37.644;2023-03-11T07:22:08;98741.06;;;-2.88;59.20
39051;BME280;24805;55.852;37.644;2023-03-11T07:27:10;98741.94;;;-2.77;59.45
39051;BME280;24805;55.852;37.644;2023-03-11T07:32:12;98740.56;;;-2.58;58.85
39051;BME280;24805;55.852;37.644;2023-03-11T07:37:15;98720.38;;;-2.55;59.78
39051;BME280;24805;55.852;37.644;2023-03-11T07:42:17;98714.41;;;-2.44;58.96
39051;BME280;24805;55.852;37.644;2023-03-11T07:47:20;98713.22;;;-2.51;59.24
39051;BME280;24805;55.852;37.644;2023-03-11T07:52:22;98697.72;;;-2.53;58.86
39051;BME280;24805;55.852;37.644;2023-03-11T07:57:24;98683.09;;;-2.54;59.29
39051;BME280;24805;55.852;37.644;2023-03-11T08:02:26;98692.66;;;-2.54;58.69
39051;BME280;24805;55.852;37.644;2023-03-11T08:07:30;98692.47;;;-2.40;58.83
39051;BME280;24805;55.852;37.644;2023-03-11T08:12:33;98656.44;;;-2.45;58.76
39051;BME280;24805;55.852;37.644;2023-03-11T08:17:35;98650.88;;;-2.29;59.59
39051;BME280;24805;55.852;37.644;2023-03-11T08:22:37;98651.38;;;-2.01;59.71
39051;BME280;24805;55.852;37.644;2023-03-11T08:27:56;98637.88;;;-1.52;58.29
39051;BME280;24805;55.852;37.644;2023-03-11T08:32:58;98632.44;;;-1.17;57.93
39051;BME280;24805;55.852;37.644;2023-03-11T08:38:00;98645.19;;;-1.14;57.44
39051;BME280;24805;55.852;37.644;2023-03-11T08:43:03;98627.88;;;-1.25;58.23
39051;BME280;24805;55.852;37.644;2023-03-11T08:48:05;98640.75;;;-1.23;57.38
39051;BME280;24805;55.852;37.644;2023-03-11T08:53:07;98622.41;;;-1.22;57.25
39051;BME280;24805;55.852;37.644;2023-03-11T08:58:10;98620.75;;;-1.55;56.74
39051;BME280;24805;55.852;37.644;2023-03-11T09:03:12;98625.41;;;-1.38;57.87
39051;BME280;24805;55.852;37.644;2023-03-11T09:08:14;98606.59;;;-1.30;58.65
39051;BME280;24805;55.852;37.644;2023-03-11T09:13:16;98594.16;;;-1.26;57.42
39051;BME280;24805;55.852;37.644;2023-03-11T09:18:19;98596.44;;;-1.33;58.06
39051;BME280;24805;55.852;37.644;2023-03-11T09:23:21;98572.63;;;-1.49;57.92
39051;BME280;24805;55.852;37.644;2023-03-11T09:28:23;98595.28;;;-1.40;57.70
39051;BME280;24805;55.852;37.644;2023-03-11T09:33:25;98588.22;;;-1.49;58.02
39051;BME280;24805;55.852;37.644;2023-03-11T09:38:28;98588.13;;;-1.91;59.10
39051;BME280;24805;55.852;37.644;2023-03-11T09:43:43;98587.09;;;-2.11;61.18
39051;BME280;24805;55.852;37.644;2023-03-11T09:49:19;98580.13;;;-2.10;61.03
39051;BME280;24805;55.852;37.644;2023-03-11T09:54:24;98584.13;;;-2.06;61.77
39051;BME280;24805;55.852;37.644;2023-03-11T09:59:29;98555.97;;;-1.90;61.90
39051;BME280;24805;55.852;37.644;2023-03-11T10:04:38;98557.16;;;-1.83;61.69
39051;BME280;24805;55.852;37.644;2023-03-11T10:09:47;98533.16;;;-1.86;61.74
39051;BME280;24805;55.852;37.644;2023-03-11T10:20:10;98511.00;;;-1.69;60.58
39051;BME280;24805;55.852;37.644;2023-03-11T10:30:34;98489.03;;;-1.56;60.04
39051;BME280;24805;55.852;37.644;2023-03-11T10:35:43;98483.25;;;-1.59;59.59
39051;BME280;24805;55.852;37.644;2023-03-11T10:40:50;98466.66;;;-1.68;59.85
39051;BME280;24805;55.852;37.644;2023-03-11T10:45:53;98458.13;;;-1.91;60.01
39051;BME280;24805;55.852;37.644;2023-03-11T10:56:04;98428.84;;;-1.72;59.37
39051;BME280;24805;55.852;37.644;2023-03-11T11:01:13;98436.47;;;-1.80;59.67
39051;BME280;24805;55.852;37.644;2023-03-11T11:11:30;98424.28;;;-1.80;59.77
39051;BME280;24805;55.852;37.644;2023-03-11T11:16:33;98418.56;;;-1.74;59.49
39051;BME280;24805;55.852;37.644;2023-03-11T11:21:40;98398.72;;;-1.75;59.81
39051;BME280;24805;55.852;37.644;2023-03-11T11:37:17;98395.84;;;-1.81;60.00
39051;BME280;24805;55.852;37.644;2023-03-11T11:42:22;98380.41;;;-1.73;60.06
39051;BME280;24805;55.852;37.644;2023-03-11T11:47:33;98358.72;;;-1.62;59.43
39051;BME280;24805;55.852;37.644;2023-03-11T11:52:43;98345.91;;;-1.45;59.40
39051;BME280;24805;55.852;37.644;2023-03-11T11:57:47;98361.94;;;-1.40;58.96
39051;BME280;24805;55.852;37.644;2023-03-11T12:08:26;98333.94;;;-1.57;59.36
39051;BME280;24805;55.852;37.644;2023-03-11T12:19:34;98322.44;;;-1.54;58.61
39051;BME280;24805;55.852;37.644;2023-03-11T12:29:55;98322.72;;;-1.57;59.28
39051;BME280;24805;55.852;37.644;2023-03-11T12:35:01;98331.84;;;-1.42;59.20
39051;BME280;24805;55.852;37.644;2023-03-11T12:45:50;98309.53;;;-1.35;59.55
39051;BME280;24805;55.852;37.644;2023-03-11T12:50:53;98324.72;;;-1.40;58.85
39051;BME280;24805;55.852;37.644;2023-03-11T12:56:49;98312.16;;;-1.25;58.67
39051;BME280;24805;55.852;37.644;2023-03-11T13:01:34;98300.88;;;-1.35;59.33
39051;BME280;24805;55.852;37.644;2023-03-11T13:11:45;98291.41;;;-1.46;59.08
39051;BME280;24805;55.852;37.644;2023-03-11T13:16:49;98310.59;;;-1.38;59.27
39051;BME280;24805;55.852;37.644;2023-03-11T13:21:55;98263.38;;;-1.33;59.40
39051;BME280;24805;55.852;37.644;2023-03-11T13:37:43;98260.50;;;-1.30;59.46
39051;BME280;24805;55.852;37.644;2023-03-11T13:42:55;98237.50;;;-1.34;59.47
39051;BME280;24805;55.852;37.644;2023-03-11T13:48:06;98224.63;;;-1.36;59.33
39051;BME280;24805;55.852;37.644;2023-03-11T13:53:20;98226.56;;;-1.28;59.58
39051;BME280;24805;55.852;37.644;2023-03-11T13:58:25;98207.91;;;-1.33;59.97
39051;BME280;24805;55.852;37.644;2023-03-11T14:03:39;98204.66;;;-1.26;59.57
39051;BME280;24805;55.852;37.644;2023-03-11T14:08:41;98210.13;;;-1.29;59.80
39051;BME280;24805;55.852;37.644;2023-03-11T14:13:45;98214.22;;;-1.17;59.61
39051;BME280;24805;55.852;37.644;2023-03-11T14:19:14;98204.25;;;-1.12;60.12
39051;BME280;24805;55.852;37.644;2023-03-11T14:24:26;98216.31;;;-1.11;60.37
39051;BME280;24805;55.852;37.644;2023-03-11T14:29:32;98185.63;;;-1.07;59.68
39051;BME280;24805;55.852;37.644;2023-03-11T14:34:38;98181.78;;;-1.13;60.58
39051;BME280;24805;55.852;37.644;2023-03-11T14:39:42;98173.28;;;-1.15;60.74
39051;BME280;24805;55.852;37.644;2023-03-11T14:44:57;98179.59;;;-1.08;60.88
39051;BME280;24805;55.852;37.644;2023-03-11T14:50:05;98171.38;;;-1.03;60.84
39051;BME280;24805;55.852;37.644;2023-03-11T14:55:30;98149.75;;;-1.03;61.13
39051;BME280;24805;55.852;37.644;2023-03-11T15:00:45;98131.91;;;-1.08;61.82
39051;BME280;24805;55.852;37.644;2023-03-11T15:05:51;98135.72;;;-0.93;61.05
39051;BME280;24805;55.852;37.644;2023-03-11T15:11:07;98129.72;;;-0.93;60.97
39051;BME280;24805;55.852;37.644;2023-03-11T15:16:34;98146.56;;;-0.88;60.58
39051;BME280;24805;55.852;37.644;2023-03-11T15:21:36;98159.72;;;-0.89;60.69
39051;BME280;24805;55.852;37.644;2023-03-11T15:26:39;98128.47;;;-0.89;60.37
39051;BME280;24805;55.852;37.644;2023-03-11T15:31:44;98134.38;;;-0.87;60.98
39051;BME280;24805;55.852;37.644;2023-03-11T15:47:02;98093.66;;;-0.88;61.52
39051;BME280;24805;55.852;37.644;2023-03-11T15:52:04;98085.03;;;-0.89;61.30
39051;BME280;24805;55.852;37.644;2023-03-11T15:57:08;98089.78;;;-0.75;60.68
39051;BME280;24805;55.852;37.644;2023-03-11T16:02:27;98071.25;;;-0.62;60.83
39051;BME280;24805;55.852;37.644;2023-03-11T16:07:29;98066.34;;;-0.75;61.51
39051;BME280;24805;55.852;37.644;2023-03-11T16:12:40;98080.75;;;-0.71;61.33
39051;BME280;24805;55.852;37.644;2023-03-11T16:17:45;98071.56;;;-0.75;61.27
39051;BME280;24805;55.852;37.644;2023-03-11T16:22:52;98037.97;;;-0.68;61.86
39051;BME280;24805;55.852;37.644;2023-03-11T16:27:58;98037.97;;;-0.68;61.90
39051;BME280;24805;55.852;37.644;2023-03-11T16:33:00;98035.91;;;-0.64;62.05
39051;BME280;24805;55.852;37.644;2023-03-11T16:38:06;98035.56;;;-0.52;61.74
39051;BME280;24805;55.852;37.644;2023-03-11T16:43:10;97985.59;;;-0.65;62.52
39051;BME280;24805;55.852;37.644;2023-03-11T16:48:14;98027.22;;;-0.55;63.04
39051;BME280;24805;55.852;37.644;2023-03-11T16:53:16;98013.22;;;-0.54;63.12
39051;BME280;24805;55.852;37.644;2023-03-11T16:58:18;97988.25;;;-0.47;62.39
39051;BME280;24805;55.852;37.644;2023-03-11T17:03:21;97983.53;;;-0.61;63.15
39051;BME280;24805;55.852;37.644;2023-03-11T17:08:23;97987.34;;;-0.38;62.68
39051;BME280;24805;55.852;37.644;2023-03-11T17:13:26;97971.53;;;-0.27;62.47
39051;BME280;24805;55.852;37.644;2023-03-11T17:18:28;97953.72;;;-0.31;62.78
39051;BME280;24805;55.852;37.644;2023-03-11T17:23:30;97939.44;;;-0.27;62.73
39051;BME280;24805;55.852;37.644;2023-03-11T17:28:33;97941.28;;;-0.20;62.92
39051;BME280;24805;55.852;37.644;2023-03-11T17:33:36;97919.31;;;-0.17;62.60
39051;BME280;24805;55.852;37.644;2023-03-11T17:38:38;97908.91;;;-0.17;62.70
39051;BME280;24805;55.852;37.644;2023-03-11T17:43:40;97899.94;;;0.03;62.12
39051;BME280;24805;55.852;37.644;2023-03-11T17:48:44;97897.97;;;-0.03;62.78
39051;BME280;24805;55.852;37.644;2023-03-11T17:53:48;97890.19;;;0.05;62.41
39051;BME280;24805;55.852;37.644;2023-03-11T17:58:50;97858.47;;;-0.08;62.54
39051;BME280;24805;55.852;37.644;2023-03-11T18:03:52;97855.03;;;0.09;62.73
39051;BME280;24805;55.852;37.644;2023-03-11T18:08:55;97854.97;;;0.27;62.26
39051;BME280;24805;55.852;37.644;2023-03-11T18:13:57;97850.19;;;0.14;62.46
39051;BME280;24805;55.852;37.644;2023-03-11T18:18:59;97847.00;;;0.28;62.08
39051;BME280;24805;55.852;37.644;2023-03-11T18:24:01;97838.50;;;0.26;62.79
39051;BME280;24805;55.852;37.644;2023-03-11T18:29:03;97823.91;;;0.33;62.80
39051;BME280;24805;55.852;37.644;2023-03-11T18:34:06;97826.13;;;0.28;63.40
39051;BME280;24805;55.852;37.644;2023-03-11T18:39:14;97833.34;;;0.34;63.27
39051;BME280;24805;55.852;37.644;2023-03-11T18:44:16;97835.22;;;0.50;62.35
39051;BME280;24805;55.852;37.644;2023-03-11T18:49:22;97809.13;;;0.50;63.10
39051;BME280;24805;55.852;37.644;2023-03-11T18:54:24;97821.72;;;0.55;63.26
39051;BME280;24805;55.852;37.644;2023-03-11T18:59:27;97778.66;;;0.51;64.32
39051;BME280;24805;55.852;37.644;2023-03-11T19:04:30;97739.97;;;0.46;64.40
39051;BME280;24805;55.852;37.644;2023-03-11T19:09:33;97768.06;;;0.60;64.62
39051;BME280;24805;55.852;37.644;2023-03-11T19:14:35;97735.47;;;0.64;64.67
39051;BME280;24805;55.852;37.644;2023-03-11T19:19:38;97720.63;;;0.65;65.22
39051;BME280;24805;55.852;37.644;2023-03-11T19:24:40;97710.84;;;0.67;65.23
39051;BME280;24805;55.852;37.644;2023-03-11T19:29:42;97705.31;;;0.70;65.78
39051;BME280;24805;55.852;37.644;2023-03-11T19:34:44;97711.69;;;0.76;65.70
39051;BME280;24805;55.852;37.644;2023-03-11T19:39:46;97694.59;;;0.89;64.74
39051;BME280;24805;55.852;37.644;2023-03-11T19:44:48;97683.63;;;0.86;65.86
39051;BME280;24805;55.852;37.644;2023-03-11T19:49:50;97657.84;;;0.83;66.47
39051;BME280;24805;55.852;37.644;2023-03-11T19:54:52;97641.22;;;0.92;66.46
39051;BME280;24805;55.852;37.644;2023-03-11T19:59:54;97629.81;;;0.93;66.59
39051;BME280;24805;55.852;37.644;2023-03-11T20:04:57;97638.78;;;0.98;67.09
39051;BME280;24805;55.852;37.644;2023-03-11T20:09:59;97616.94;;;0.99;67.44
39051;BME280;24805;55.852;37.644;2023-03-11T20:15:01;97624.41;;;1.02;67.73
39051;BME280;24805;55.852;37.644;2023-03-11T20:20:04;97604.66;;;1.00;69.03
39051;BME280;24805;55.852;37.644;2023-03-11T20:25:07;97595.53;;;1.12;69.53
39051;BME280;24805;55.852;37.644;2023-03-11T20:30:10;97559.13;;;1.11;69.83
39051;BME280;24805;55.852;37.644;2023-03-11T20:35:12;97566.78;;;1.20;69.17
39051;BME280;24805;55.852;37.644;2023-03-11T20:40:17;97570.19;;;1.21;69.60
39051;BME280;24805;55.852;37.644;2023-03-11T20:45:20;97554.06;;;1.17;70.31
39051;BME280;24805;55.852;37.644;2023-03-11T20:50:23;97536.56;;;1.26;70.32
39051;BME280;24805;55.852;37.644;2023-03-11T20:55:25;97533.00;;;1.19;71.03
39051;BME280;24805;55.852;37.644;2023-03-11T21:00:27;97526.75;;;1.36;70.21
39051;BME280;24805;55.852;37.644;2023-03-11T21:05:34;97501.78;;;1.33;70.80
39051;BME280;24805;55.852;37.644;2023-03-11T21:10:37;97483.16;;;1.28;71.41
39051;BME280;24805;55.852;37.644;2023-03-11T21:15:40;97483.81;;;1.38;71.11
39051;BME280;24805;55.852;37.644;2023-03-11T21:20:42;97448.22;;;1.37;71.76
39051;BME280;24805;55.852;37.644;2023-03-11T21:25:44;97439.56;;;1.37;71.59
39051;BME280;24805;55.852;37.644;2023-03-11T21:30:46;97436.38;;;1.50;71.87
39051;BME280;24805;55.852;37.644;2023-03-11T21:35:56;97419.22;;;1.55;71.71
39051;BME280;24805;55.852;37.644;2023-03-11T21:41:14;97401.03;;;1.62;71.73
39051;BME280;24805;55.852;37.644;2023-03-11T21:46:19;97387.59;;;1.65;71.96
39051;BME280;24805;55.852;37.644;2023-03-11T21:51:23;97389.75;;;1.61;72.73
39051;BME280;24805;55.852;37.644;2023-03-11T21:56:25;97350.44;;;1.55;72.66
39051;BME280;24805;55.852;37.644;2023-03-11T22:01:28;97352.66;;;1.66;73.12
39051;BME280;24805;55.852;37.644;2023-03-11T22:06:30;97341.81;;;1.77;72.73
39051;BME280;24805;55.852;37.644;2023-03-11T22:11:34;97338.53;;;1.75;73.24
39051;BME280;24805;55.852;37.644;2023-03-11T22:16:36;97322.22;;;1.73;73.56
39051;BME280;24805;55.852;37.644;2023-03-11T22:21:38;97330.19;;;1.80;73.64
39051;BME280;24805;55.852;37.644;2023-03-11T22:26:41;97320.06;;;1.77;73.97
39051;BME280;24805;55.852;37.644;2023-03-11T22:31:43;97296.47;;;1.85;74.07
39051;BME280;24805;55.852;37.644;2023-03-11T22:36:45;97289.06;;;1.88;73.66
39051;BME280;24805;55.852;37.644;2023-03-11T22:41:48;97281.81;;;1.98;73.91
39051;BME280;24805;55.852;37.644;2023-03-11T22:46:50;97272.06;;;1.92;74.05
39051;BME280;24805;55.852;37.644;2023-03-11T22:51:52;97263.50;;;1.98;74.48
39051;BME280;24805;55.852;37.644;2023-03-11T22:56:54;97229.56;;;1.90;74.13
39051;BME280;24805;55.852;37.644;2023-03-11T23:01:56;97235.16;;;2.02;74.72
39051;BME280;24805;55.852;37.644;2023-03-11T23:06:58;97239.44;;;2.18;74.65
39051;BME280;24805;55.852;37.644;2023-03-11T23:12:00;97222.75;;;2.19;74.43
39051;BME280;24805;55.852;37.644;2023-03-11T23:17:04;97198.00;;;2.21;74.94
39051;BME280;24805;55.852;37.644;2023-03-11T23:22:06;97189.59;;;2.40;74.53
39051;BME280;24805;55.852;37.644;2023-03-11T23:27:08;97189.00;;;2.38;74.73
39051;BME280;24805;55.852;37.644;2023-03-11T23:32:11;97173.47;;;2.37;74.95
39051;BME280;24805;55.852;37.644;2023-03-11T23:37:13;97148.94;;;2.38;75.36
39051;BME280;24805;55.852;37.644;2023-03-11T23:42:15;97153.41;;;2.44;75.15
39051;BME280;24805;55.852;37.644;2023-03-11T23:47:26;97151.50;;;2.53;75.17
39051;BME280;24805;55.852;37.644;2023-03-11T23:52:29;97119.91;;;2.54;75.21
39051;BME280;24805;55.852;37.644;2023-03-11T23:57:35;97104.25;;;2.61;75.18
